createdAt,value
2023-03-10T00:01:10.371Z,99.90
2023-03-10T00:03:36.850Z,99.90
2023-03-10T00:06:04.196Z,99.90
2023-03-10T00:08:30.781Z,99.90
2023-03-10T00:10:57.309Z,99.90
2023-03-10T00:13:23.879Z,99.90
2023-03-10T00:15:50.449Z,99.90
2023-03-10T00:18:16.965Z,99.90
2023-03-10T00:20:43.575Z,99.90
2023-03-10T00:23:10.122Z,99.90
2023-03-10T00:25:36.659Z,99.90
2023-03-10T00:28:03.202Z,99.90
2023-03-10T00:30:32.546Z,99.90
2023-03-10T00:32:59.454Z,99.90
2023-03-10T00:35:26.060Z,99.90
2023-03-10T00:37:53.284Z,99.90
2023-03-10T00:40:19.894Z,99.90
2023-03-10T00:42:46.458Z,99.90
2023-03-10T00:45:13.016Z,99.90
2023-03-10T00:47:39.519Z,99.90
2023-03-10T00:50:06.318Z,99.90
2023-03-10T00:52:33.212Z,99.90
2023-03-10T00:54:59.780Z,99.90
2023-03-10T00:57:26.687Z,99.90
2023-03-10T00:59:53.210Z,99.90
2023-03-10T01:02:20.038Z,99.90
2023-03-10T01:04:47.144Z,99.90
2023-03-10T01:07:13.730Z,99.90
2023-03-10T01:09:40.275Z,99.90
2023-03-10T01:12:07.014Z,99.90
2023-03-10T01:14:33.632Z,99.90
2023-03-10T01:17:00.191Z,99.90
2023-03-10T01:19:26.706Z,99.00
2023-03-10T01:21:53.244Z,99.90
2023-03-10T01:24:19.862Z,68.30
2023-03-10T01:26:46.390Z,51.30
2023-03-10T01:29:13.004Z,39.20
2023-03-10T01:31:41.806Z,33.00
2023-03-10T01:34:08.513Z,23.20
2023-03-10T01:36:35.110Z,18.30
2023-03-10T01:39:01.732Z,1.00
2023-03-10T01:41:28.303Z,4.30
2023-03-10T01:43:55.854Z,1.00
2023-03-10T01:46:25.707Z,1.00
2023-03-10T01:48:53.453Z,1.00
2023-03-10T01:51:20.406Z,1.00
2023-03-10T01:53:47.094Z,1.00
2023-03-10T01:56:14.127Z,1.00
2023-03-10T01:58:42.397Z,1.00
2023-03-10T02:01:10.347Z,1.00
2023-03-10T02:03:40.941Z,1.00
2023-03-10T02:06:11.538Z,1.00
2023-03-10T02:08:43.097Z,1.00
2023-03-10T02:11:11.317Z,1.00
2023-03-10T02:13:37.798Z,1.00
2023-03-10T02:16:04.594Z,1.00
2023-03-10T02:18:31.787Z,1.00
2023-03-10T02:21:17.188Z,1.00
2023-03-10T02:23:51.394Z,1.00
2023-03-10T02:26:38.518Z,1.00
2023-03-10T02:32:34.890Z,1.00
2023-03-10T02:35:01.630Z,1.00
2023-03-10T02:37:30.422Z,1.00
2023-03-10T02:39:57.019Z,1.00
2023-03-10T02:42:25.153Z,1.00
2023-03-10T02:44:52.464Z,1.00
2023-03-10T02:47:19.968Z,1.00
2023-03-10T02:49:46.581Z,1.00
2023-03-10T02:52:28.690Z,1.00
2023-03-10T02:54:55.263Z,1.00
2023-03-10T02:57:21.829Z,1.00
2023-03-10T02:59:48.379Z,1.00
2023-03-10T03:02:15.067Z,1.00
2023-03-10T03:04:43.303Z,1.00
2023-03-10T03:07:09.817Z,1.00
2023-03-10T03:09:36.302Z,1.00
2023-03-10T03:12:02.873Z,1.00
2023-03-10T03:14:29.380Z,1.00
2023-03-10T03:16:55.947Z,1.00
2023-03-10T03:19:22.575Z,1.00
2023-03-10T03:21:50.083Z,1.00
2023-03-10T03:24:17.873Z,1.00
2023-03-10T03:26:44.578Z,1.00
2023-03-10T03:29:12.047Z,1.00
2023-03-10T03:31:38.616Z,1.00
2023-03-10T03:34:05.247Z,1.00
2023-03-10T03:36:31.856Z,1.00
2023-03-10T03:38:58.362Z,1.00
2023-03-10T03:41:24.958Z,1.00
2023-03-10T03:43:51.447Z,1.00
2023-03-10T03:46:18.025Z,1.00
2023-03-10T03:48:44.574Z,1.00
2023-03-10T03:51:11.092Z,1.00
2023-03-10T03:53:37.626Z,1.00
2023-03-10T03:56:04.437Z,1.00
2023-03-10T03:58:30.934Z,1.00
2023-03-10T04:00:57.596Z,1.00
2023-03-10T04:03:24.161Z,1.00
2023-03-10T04:05:50.797Z,1.00
2023-03-10T04:08:17.408Z,1.80
2023-03-10T04:10:49.753Z,3.60
2023-03-10T04:13:16.263Z,2.40
2023-03-10T04:15:42.847Z,8.00
2023-03-10T04:18:10.643Z,1.00
2023-03-10T04:20:37.286Z,57.20
2023-03-10T04:23:04.182Z,38.10
2023-03-10T04:25:30.847Z,1.00
2023-03-10T04:27:57.498Z,9.80
2023-03-10T04:30:29.162Z,10.10
2023-03-10T04:32:59.470Z,5.90
2023-03-10T04:35:26.391Z,5.40
2023-03-10T04:37:53.179Z,14.20
2023-03-10T04:40:19.846Z,1.00
2023-03-10T04:42:46.786Z,1.00
2023-03-10T04:45:13.772Z,1.50
2023-03-10T04:47:40.280Z,1.00
2023-03-10T04:50:07.130Z,1.00
2023-03-10T04:52:33.657Z,1.00
2023-03-10T04:55:00.290Z,1.00
2023-03-10T04:57:26.864Z,1.00
2023-03-10T04:59:53.466Z,1.00
2023-03-10T05:02:20.248Z,15.40
2023-03-10T05:04:46.837Z,12.10
2023-03-10T05:10:05.292Z,10.50
2023-03-10T05:12:31.799Z,3.10
2023-03-10T05:14:58.313Z,1.50
2023-03-10T05:17:26.751Z,1.00
2023-03-10T05:19:54.821Z,1.00
2023-03-10T05:22:21.305Z,1.00
2023-03-10T05:24:48.279Z,1.00
2023-03-10T05:27:15.019Z,3.30
2023-03-10T05:29:41.792Z,23.90
2023-03-10T05:32:08.417Z,27.90
2023-03-10T05:34:35.158Z,41.50
2023-03-10T05:37:01.708Z,42.80
2023-03-10T05:39:28.208Z,34.30
2023-03-10T05:41:54.730Z,33.50
2023-03-10T05:44:21.301Z,35.40
2023-03-10T05:46:47.928Z,38.10
2023-03-10T05:49:14.525Z,41.40
2023-03-10T05:51:41.038Z,32.80
2023-03-10T05:54:09.373Z,31.90
2023-03-10T05:56:35.894Z,71.20
2023-03-10T05:59:02.856Z,56.70
2023-03-10T06:01:29.536Z,25.30
2023-03-10T06:03:56.217Z,28.00
2023-03-10T06:06:22.788Z,35.90
2023-03-10T06:08:49.333Z,40.70
2023-03-10T06:11:15.836Z,41.70
2023-03-10T06:13:42.405Z,35.20
2023-03-10T06:16:09.008Z,43.80
2023-03-10T06:18:35.565Z,30.50
2023-03-10T06:21:06.265Z,30.60
2023-03-10T06:23:32.854Z,31.20
2023-03-10T06:26:00.589Z,38.10
2023-03-10T06:28:32.674Z,29.90
2023-03-10T06:31:00.284Z,37.50
2023-03-10T06:33:26.998Z,21.40
2023-03-10T06:35:53.793Z,28.10
2023-03-10T06:38:20.781Z,39.80
2023-03-10T06:40:47.276Z,38.50
2023-03-10T06:43:13.838Z,28.90
2023-03-10T06:45:46.836Z,5.60
2023-03-10T06:48:13.967Z,33.10
2023-03-10T06:50:41.920Z,26.70
2023-03-10T06:53:08.814Z,43.60
2023-03-10T06:55:35.369Z,31.80
2023-03-10T06:58:01.939Z,35.10
2023-03-10T07:00:28.498Z,37.30
2023-03-10T07:02:55.009Z,31.90
2023-03-10T07:05:23.078Z,32.20
2023-03-10T07:07:50.712Z,23.30
2023-03-10T07:10:17.485Z,21.30
2023-03-10T07:12:44.008Z,27.50
2023-03-10T07:15:10.809Z,18.40
2023-03-10T07:17:37.420Z,28.40
2023-03-10T07:20:04.764Z,29.60
2023-03-10T07:22:31.379Z,45.10
2023-03-10T07:24:57.888Z,38.50
2023-03-10T07:27:24.437Z,45.00
2023-03-10T07:29:50.983Z,47.90
2023-03-10T07:32:17.501Z,31.70
2023-03-10T07:34:44.020Z,52.30
2023-03-10T07:37:10.818Z,45.20
2023-03-10T07:39:37.300Z,1.00
2023-03-10T07:42:03.926Z,1.00
2023-03-10T07:44:30.473Z,1.00
2023-03-10T07:46:56.985Z,3.90
2023-03-10T07:49:23.562Z,14.60
2023-03-10T07:51:50.074Z,10.90
2023-03-10T07:54:16.590Z,22.90
2023-03-10T07:56:43.112Z,12.20
2023-03-10T07:59:09.649Z,16.80
2023-03-10T08:01:36.173Z,12.80
2023-03-10T08:04:03.220Z,4.00
2023-03-10T08:06:30.796Z,3.50
2023-03-10T08:08:57.995Z,28.80
2023-03-10T08:11:24.649Z,40.30
2023-03-10T08:13:51.479Z,1.60
2023-03-10T08:16:19.585Z,4.10
2023-03-10T08:18:46.117Z,10.10
2023-03-10T08:21:12.710Z,12.80
2023-03-10T08:23:39.458Z,12.70
2023-03-10T08:26:07.120Z,1.20
2023-03-10T08:28:35.173Z,94.00
2023-03-10T08:31:07.082Z,98.30
2023-03-10T08:33:33.620Z,90.20
2023-03-10T08:36:11.823Z,95.20
2023-03-10T08:38:38.876Z,75.00
2023-03-10T08:41:09.967Z,51.40
2023-03-10T08:43:36.739Z,70.30
2023-03-10T08:46:03.287Z,56.50
2023-03-10T08:48:29.877Z,65.60
2023-03-10T08:50:57.949Z,71.80
2023-03-10T08:53:24.620Z,61.20
2023-03-10T08:55:52.321Z,47.50
2023-03-10T08:58:19.093Z,80.80
2023-03-10T09:00:45.660Z,57.50
2023-03-10T09:03:15.425Z,59.30
2023-03-10T09:05:42.135Z,51.70
2023-03-10T09:08:08.974Z,58.10
2023-03-10T09:10:36.398Z,63.70
2023-03-10T09:13:13.249Z,81.80
2023-03-10T09:15:41.447Z,74.50
2023-03-10T09:18:11.872Z,65.00
2023-03-10T09:20:39.636Z,30.50
2023-03-10T09:23:06.819Z,37.20
2023-03-10T09:25:33.382Z,50.10
2023-03-10T09:28:00.062Z,42.40
2023-03-10T09:30:27.122Z,81.40
2023-03-10T09:32:53.911Z,60.20
2023-03-10T09:35:20.816Z,52.20
2023-03-10T09:37:47.429Z,67.30
2023-03-10T09:40:18.522Z,81.60
2023-03-10T09:42:46.716Z,62.30
2023-03-10T09:45:25.393Z,82.30
2023-03-10T09:48:16.217Z,60.50
2023-03-10T09:50:49.785Z,58.60
2023-03-10T09:53:35.232Z,43.70
2023-03-10T09:56:04.887Z,43.00
2023-03-10T09:58:42.466Z,50.50
2023-03-10T10:01:17.289Z,45.20
2023-03-10T10:03:52.968Z,50.10
2023-03-10T10:06:22.852Z,48.80
2023-03-10T10:09:05.752Z,44.80
2023-03-10T10:11:33.215Z,43.70
2023-03-10T10:14:22.043Z,47.90
2023-03-10T10:16:56.274Z,50.40
2023-03-10T10:19:27.246Z,42.10
2023-03-10T10:22:07.597Z,59.60
2023-03-10T10:24:34.503Z,51.20
2023-03-10T10:27:01.228Z,59.70
2023-03-10T10:29:36.461Z,49.10
2023-03-10T10:32:05.534Z,46.50
2023-03-10T10:34:32.697Z,45.50
2023-03-10T10:36:59.921Z,48.10
2023-03-10T10:39:28.786Z,41.10
2023-03-10T10:42:11.652Z,46.30
2023-03-10T10:44:44.585Z,47.40
2023-03-10T10:47:26.633Z,60.40
2023-03-10T10:49:53.238Z,53.80
2023-03-10T10:52:23.854Z,68.80
2023-03-10T10:54:58.767Z,58.70
2023-03-10T10:57:48.360Z,48.80
2023-03-10T11:00:18.447Z,56.70
2023-03-10T11:02:45.747Z,47.30
2023-03-10T11:05:12.274Z,48.10
2023-03-10T11:07:38.967Z,59.40
2023-03-10T11:10:11.662Z,75.90
2023-03-10T11:12:52.087Z,74.70
2023-03-10T11:15:21.119Z,49.60
2023-03-10T11:17:53.236Z,46.70
2023-03-10T11:20:32.757Z,76.50
2023-03-10T11:23:18.180Z,69.80
2023-03-10T11:25:58.449Z,69.80
2023-03-10T11:28:46.531Z,66.50
2023-03-10T11:31:35.993Z,72.60
2023-03-10T11:34:05.338Z,85.20
2023-03-10T11:36:43.233Z,72.20
2023-03-10T11:39:27.505Z,53.50
2023-03-10T11:41:59.713Z,63.60
2023-03-10T11:44:38.922Z,67.30
2023-03-10T11:47:42.037Z,59.90
2023-03-10T11:50:23.074Z,99.90
2023-03-10T11:52:50.766Z,71.40
2023-03-10T11:55:21.309Z,91.00
2023-03-10T11:57:50.237Z,77.20
2023-03-10T12:00:37.122Z,82.70
2023-03-10T12:03:13.100Z,84.50
2023-03-10T12:05:43.244Z,81.40
2023-03-10T12:08:11.086Z,85.30
2023-03-10T12:10:39.610Z,73.40
2023-03-10T12:13:06.281Z,73.50
2023-03-10T12:15:39.737Z,75.90
2023-03-10T12:18:06.962Z,77.50
2023-03-10T12:20:34.353Z,90.10
2023-03-10T12:23:21.512Z,75.60
2023-03-10T12:25:48.939Z,84.90
2023-03-10T12:28:20.316Z,76.40
2023-03-10T12:30:51.607Z,91.40
2023-03-10T12:33:30.252Z,88.10
2023-03-10T12:36:02.456Z,92.30
2023-03-10T12:38:30.802Z,92.10
2023-03-10T12:40:57.868Z,82.00
2023-03-10T12:43:42.686Z,85.10
2023-03-10T12:46:16.032Z,86.40
2023-03-10T12:48:45.380Z,86.50
2023-03-10T12:51:16.485Z,99.90
2023-03-10T12:54:04.715Z,90.10
2023-03-10T12:56:36.735Z,99.90
2023-03-10T12:59:16.630Z,94.40
2023-03-10T13:01:55.600Z,96.80
2023-03-10T13:04:24.004Z,97.50
2023-03-10T13:06:55.314Z,98.70
2023-03-10T13:09:33.395Z,99.50
2023-03-10T13:12:20.299Z,99.90
2023-03-10T13:14:50.812Z,95.10
2023-03-10T13:17:22.472Z,71.50
2023-03-10T13:19:59.635Z,61.10
2023-03-10T13:22:26.407Z,52.80
2023-03-10T13:25:00.623Z,69.50
2023-03-10T13:27:29.110Z,70.10
2023-03-10T13:29:56.568Z,99.90
2023-03-10T13:32:23.339Z,99.90
2023-03-10T13:34:49.918Z,99.90
2023-03-10T13:37:16.423Z,99.90
2023-03-10T13:39:43.405Z,99.90
2023-03-10T13:42:40.983Z,99.90
2023-03-10T13:45:14.995Z,99.90
2023-03-10T13:47:42.310Z,99.90
2023-03-10T13:50:11.192Z,99.90
2023-03-10T13:52:37.742Z,99.90
2023-03-10T13:55:14.218Z,99.90
2023-03-10T13:57:41.560Z,99.90
2023-03-10T14:00:11.389Z,99.90
2023-03-10T14:02:39.376Z,99.90
2023-03-10T14:05:09.039Z,99.90
2023-03-10T14:07:37.543Z,99.90
2023-03-10T14:10:08.591Z,99.90
2023-03-10T14:12:40.017Z,99.90
2023-03-10T14:15:12.633Z,99.90
2023-03-10T14:17:39.430Z,99.90
2023-03-10T14:20:08.237Z,80.70
2023-03-10T14:22:43.275Z,95.60
2023-03-10T14:25:17.231Z,90.30
2023-03-10T14:27:45.671Z,94.60
2023-03-10T14:30:31.199Z,94.50
2023-03-10T14:32:58.516Z,83.30
2023-03-10T14:35:25.310Z,96.90
2023-03-10T14:37:52.413Z,90.00
2023-03-10T14:40:20.196Z,79.50
2023-03-10T14:42:47.962Z,60.30
2023-03-10T14:45:27.337Z,80.90
2023-03-10T14:47:54.884Z,68.50
2023-03-10T14:50:22.751Z,80.10
2023-03-10T14:52:49.420Z,92.20
2023-03-10T14:55:18.627Z,73.50
2023-03-10T14:57:46.348Z,66.00
2023-03-10T15:00:18.690Z,77.20
2023-03-10T15:02:45.820Z,87.20
2023-03-10T15:05:16.512Z,58.90
2023-03-10T15:07:43.112Z,80.00
2023-03-10T15:10:14.428Z,77.10
2023-03-10T15:12:41.421Z,96.30
2023-03-10T15:15:15.582Z,56.20
2023-03-10T15:17:42.201Z,67.50
2023-03-10T15:20:16.320Z,92.80
2023-03-10T15:22:46.201Z,88.60
2023-03-10T15:25:13.775Z,95.40
2023-03-10T15:27:40.478Z,85.30
2023-03-10T15:30:08.041Z,95.00
2023-03-10T15:32:34.593Z,52.20
2023-03-10T15:35:01.147Z,56.00
2023-03-10T15:37:27.690Z,57.70
2023-03-10T15:39:54.260Z,74.00
2023-03-10T15:42:20.773Z,51.40
2023-03-10T15:44:50.539Z,62.50
2023-03-10T15:47:17.087Z,78.50
2023-03-10T15:49:43.698Z,66.10
2023-03-10T15:52:10.204Z,89.80
2023-03-10T15:54:36.727Z,56.20
2023-03-10T15:57:03.348Z,59.20
2023-03-10T15:59:29.837Z,59.00
2023-03-10T16:01:56.507Z,57.60
2023-03-10T16:04:23.715Z,70.70
2023-03-10T16:06:50.310Z,59.10
2023-03-10T16:09:16.880Z,45.20
2023-03-10T16:11:43.397Z,85.20
2023-03-10T16:14:09.893Z,55.40
2023-03-10T16:16:36.642Z,54.80
2023-03-10T16:19:03.354Z,48.50
2023-03-10T16:21:30.015Z,93.60
2023-03-10T16:23:56.976Z,91.80
2023-03-10T16:26:23.918Z,52.00
2023-03-10T16:28:52.973Z,56.20
2023-03-10T16:31:20.822Z,38.50
2023-03-10T16:33:48.041Z,56.70
2023-03-10T16:36:17.212Z,48.20
2023-03-10T16:38:44.189Z,58.00
2023-03-10T16:41:11.327Z,58.50
2023-03-10T16:43:38.309Z,74.60
2023-03-10T16:46:04.980Z,94.30
2023-03-10T16:48:31.533Z,79.90
2023-03-10T16:50:58.062Z,60.40
2023-03-10T16:53:24.572Z,58.70
2023-03-10T16:55:51.122Z,52.50
2023-03-10T16:58:17.615Z,90.90
2023-03-10T17:00:44.162Z,85.60
2023-03-10T17:03:10.714Z,91.10
2023-03-10T17:05:39.138Z,72.70
2023-03-10T17:08:06.007Z,78.90
2023-03-10T17:10:33.455Z,81.00
2023-03-10T17:12:59.950Z,97.50
2023-03-10T17:15:26.486Z,99.90
2023-03-10T17:17:53.087Z,95.50
2023-03-10T17:20:19.834Z,79.30
2023-03-10T17:22:46.467Z,87.50
2023-03-10T17:25:13.294Z,94.50
2023-03-10T17:27:41.750Z,93.00
2023-03-10T17:30:09.235Z,85.00
2023-03-10T17:32:36.994Z,92.00
2023-03-10T17:35:04.712Z,96.10
2023-03-10T17:37:31.193Z,92.40
2023-03-10T17:39:57.754Z,99.40
2023-03-10T17:42:25.310Z,80.00
2023-03-10T17:44:51.881Z,86.80
2023-03-10T17:47:18.388Z,74.40
2023-03-10T17:49:45.388Z,77.50
2023-03-10T17:52:11.904Z,82.30
2023-03-10T17:54:38.449Z,82.40
2023-03-10T17:57:05.080Z,90.20
2023-03-10T17:59:32.759Z,91.40
2023-03-10T18:02:00.480Z,80.10
2023-03-10T18:04:29.534Z,90.50
2023-03-10T18:06:56.042Z,96.50
2023-03-10T18:09:22.842Z,64.90
2023-03-10T18:11:49.682Z,89.50
2023-03-10T18:14:16.198Z,92.00
2023-03-10T18:16:42.711Z,88.70
2023-03-10T18:19:11.167Z,89.50
2023-03-10T18:21:38.057Z,90.30
2023-03-10T18:24:04.694Z,77.70
2023-03-10T18:26:31.239Z,93.90
2023-03-10T18:28:58.684Z,99.90
2023-03-10T18:31:26.762Z,99.90
2023-03-10T18:33:53.456Z,99.90
2023-03-10T18:36:20.313Z,99.90
2023-03-10T18:38:47.165Z,99.90
2023-03-10T18:41:14.058Z,99.90
2023-03-10T18:43:40.561Z,99.90
2023-03-10T18:46:08.190Z,99.90
2023-03-10T18:48:34.913Z,99.90
2023-03-10T18:51:01.438Z,99.90
2023-03-10T18:53:28.118Z,99.90
2023-03-10T18:55:55.074Z,99.90
2023-03-10T18:58:22.001Z,99.90
2023-03-10T19:00:48.673Z,99.90
2023-03-10T19:03:15.393Z,99.90
2023-03-10T19:05:41.975Z,99.90
2023-03-10T19:08:10.272Z,99.90
2023-03-10T19:10:37.405Z,99.90
2023-03-10T19:13:04.039Z,99.90
2023-03-10T19:15:30.607Z,99.90
2023-03-10T19:17:57.164Z,99.90
2023-03-10T19:20:23.741Z,99.90
2023-03-10T19:22:51.046Z,99.90
2023-03-10T19:25:18.246Z,99.90
2023-03-10T19:27:44.819Z,99.90
2023-03-10T19:30:17.050Z,99.90
2023-03-10T19:32:44.592Z,99.90
2023-03-10T19:35:12.031Z,99.90
2023-03-10T19:37:42.825Z,99.90
2023-03-10T19:40:10.056Z,99.90
2023-03-10T19:42:38.803Z,99.90
2023-03-10T19:45:06.338Z,99.90
2023-03-10T19:47:33.258Z,99.90
2023-03-10T19:49:59.798Z,99.90
2023-03-10T19:52:28.366Z,99.90
2023-03-10T19:54:54.943Z,99.90
2023-03-10T19:57:21.517Z,99.90
2023-03-10T19:59:48.031Z,99.90
2023-03-10T20:02:15.557Z,99.90
2023-03-10T20:04:42.531Z,99.90
2023-03-10T20:07:09.938Z,99.90
2023-03-10T20:09:36.595Z,99.90
2023-03-10T20:12:03.303Z,99.90
2023-03-10T20:14:30.093Z,99.90
2023-03-10T20:16:57.789Z,99.90
2023-03-10T20:19:24.289Z,99.90
2023-03-10T20:21:50.836Z,99.90
2023-03-10T20:24:17.604Z,99.90
2023-03-10T20:26:44.281Z,99.90
2023-03-10T20:29:11.514Z,99.90
2023-03-10T20:31:38.077Z,99.90
2023-03-10T20:34:05.609Z,99.90
2023-03-10T20:36:32.562Z,99.90
2023-03-10T20:38:59.534Z,99.90
2023-03-10T20:41:26.160Z,99.90
2023-03-10T20:43:53.654Z,99.90
2023-03-10T20:46:22.444Z,99.90
2023-03-10T20:48:49.852Z,99.90
2023-03-10T20:51:19.097Z,99.90
2023-03-10T20:53:46.028Z,99.90
2023-03-10T20:56:14.474Z,99.90
2023-03-10T20:58:41.034Z,99.90
2023-03-10T21:01:15.247Z,99.90
2023-03-10T21:03:42.094Z,99.90
2023-03-10T21:06:08.700Z,99.90
2023-03-10T21:08:36.328Z,99.90
2023-03-10T21:11:04.481Z,99.90
2023-03-10T21:13:32.018Z,99.90
2023-03-10T21:15:58.815Z,99.90
2023-03-10T21:18:25.854Z,99.90
2023-03-10T21:20:52.533Z,99.90
2023-03-10T21:23:19.072Z,99.90
2023-03-10T21:25:45.567Z,99.90
2023-03-10T21:28:12.138Z,95.30
2023-03-10T21:30:38.818Z,87.20
2023-03-10T21:33:05.388Z,81.20
2023-03-10T21:35:34.201Z,93.20
2023-03-10T21:38:00.917Z,99.90
2023-03-10T21:40:27.859Z,99.90
2023-03-10T21:42:54.395Z,84.80
2023-03-10T21:45:22.822Z,99.90
2023-03-10T21:47:49.660Z,99.90
2023-03-10T21:50:17.636Z,99.90
2023-03-10T21:52:44.517Z,99.90
2023-03-10T21:55:15.669Z,99.90
2023-03-10T21:57:42.205Z,99.90
2023-03-10T22:00:09.369Z,99.90
2023-03-10T22:02:37.045Z,99.90
2023-03-10T22:05:05.962Z,99.90
2023-03-10T22:07:32.727Z,99.90
2023-03-10T22:09:59.562Z,99.90
2023-03-10T22:12:26.082Z,99.90
2023-03-10T22:14:56.286Z,99.90
2023-03-10T22:17:23.635Z,99.90
2023-03-10T22:19:50.406Z,99.90
2023-03-10T22:22:16.957Z,99.90
2023-03-10T22:24:44.323Z,99.90
2023-03-10T22:27:10.804Z,99.90
2023-03-10T22:29:37.314Z,99.90
2023-03-10T22:32:04.430Z,99.90
2023-03-10T22:34:30.960Z,99.90
2023-03-10T22:36:57.485Z,99.50
2023-03-10T22:39:24.534Z,68.30
2023-03-10T22:41:51.268Z,91.80
2023-03-10T22:44:17.863Z,99.90
2023-03-10T22:46:45.347Z,99.90
2023-03-10T22:49:12.426Z,99.90
2023-03-10T22:51:39.249Z,99.90
2023-03-10T22:54:05.958Z,99.90
2023-03-10T22:56:32.471Z,99.90
2023-03-10T22:59:03.961Z,99.90
2023-03-10T23:01:30.716Z,99.90
2023-03-10T23:03:57.464Z,99.90
2023-03-10T23:06:26.346Z,99.90
2023-03-10T23:08:52.933Z,99.90
2023-03-10T23:11:19.563Z,99.90
2023-03-10T23:13:46.116Z,99.90
2023-03-10T23:16:12.665Z,99.90
2023-03-10T23:18:39.210Z,99.90
2023-03-10T23:21:06.754Z,99.90
2023-03-10T23:23:33.273Z,99.90
2023-03-10T23:25:59.784Z,99.90
2023-03-10T23:28:26.442Z,99.90
2023-03-10T23:30:54.212Z,99.90
2023-03-10T23:33:21.910Z,99.90
2023-03-10T23:35:53.552Z,99.90
2023-03-10T23:38:21.113Z,99.90
2023-03-10T23:40:47.694Z,99.90
2023-03-10T23:43:14.589Z,99.90
2023-03-10T23:45:41.216Z,99.90
2023-03-10T23:48:08.694Z,99.90
2023-03-10T23:50:39.396Z,99.90
2023-03-10T23:53:06.518Z,99.90
2023-03-10T23:55:35.437Z,99.90
2023-03-10T23:58:02.048Z,99.90
